sensor_id;sensor_type;location;lat;lon;timestamp;P1;durP1;ratioP1;P2;durP2;ratioP2
46505;SDS011;32220;49.808;9.968;2022-08-27T00:00:48;4.47;;;3.90;;
46505;SDS011;32220;49.808;9.968;2022-08-27T00:03:17;5.97;;;4.00;;
46505;SDS011;32220;49.808;9.968;2022-08-27T00:05:45;5.00;;;4.00;;
46505;SDS011;32220;49.808;9.968;2022-08-27T00:08:13;4.63;;;4.10;;
46505;SDS011;32220;49.808;9.968;2022-08-27T00:10:40;5.17;;;4.20;;
46505;SDS011;32220;49.808;9.968;2022-08-27T00:13:08;7.17;;;4.77;;
46505;SDS011;32220;49.808;9.968;2022-08-27T00:15:36;5.37;;;4.20;;
46505;SDS011;32220;49.808;9.968;2022-08-27T00:18:04;4.30;;;4.00;;
46505;SDS011;32220;49.808;9.968;2022-08-27T00:20:33;4.73;;;4.17;;
46505;SDS011;32220;49.808;9.968;2022-08-27T00:23:01;4.23;;;3.83;;
46505;SDS011;32220;49.808;9.968;2022-08-27T00:25:29;4.17;;;3.50;;
46505;SDS011;32220;49.808;9.968;2022-08-27T00:27:56;5.70;;;4.23;;
46505;SDS011;32220;49.808;9.968;2022-08-27T00:30:24;5.80;;;4.20;;
46505;SDS011;32220;49.808;9.968;2022-08-27T00:32:52;5.20;;;4.17;;
46505;SDS011;32220;49.808;9.968;2022-08-27T00:35:22;4.30;;;3.90;;
46505;SDS011;32220;49.808;9.968;2022-08-27T00:37:51;5.73;;;4.13;;
46505;SDS011;32220;49.808;9.968;2022-08-27T00:40:19;4.10;;;3.70;;
46505;SDS011;32220;49.808;9.968;2022-08-27T00:42:48;4.30;;;3.63;;
46505;SDS011;32220;49.808;9.968;2022-08-27T00:45:17;4.07;;;3.67;;
46505;SDS011;32220;49.808;9.968;2022-08-27T00:47:49;4.73;;;3.80;;
46505;SDS011;32220;49.808;9.968;2022-08-27T00:50:22;3.83;;;3.40;;
46505;SDS011;32220;49.808;9.968;2022-08-27T00:53:00;5.70;;;4.03;;
46505;SDS011;32220;49.808;9.968;2022-08-27T00:55:31;4.73;;;3.90;;
46505;SDS011;32220;49.808;9.968;2022-08-27T00:58:07;3.70;;;3.40;;
46505;SDS011;32220;49.808;9.968;2022-08-27T01:00:37;6.13;;;4.50;;
46505;SDS011;32220;49.808;9.968;2022-08-27T01:03:05;4.03;;;3.73;;
46505;SDS011;32220;49.808;9.968;2022-08-27T01:05:34;5.43;;;3.90;;
46505;SDS011;32220;49.808;9.968;2022-08-27T01:08:06;5.20;;;4.40;;
46505;SDS011;32220;49.808;9.968;2022-08-27T01:10:36;4.57;;;4.03;;
46505;SDS011;32220;49.808;9.968;2022-08-27T01:13:05;5.13;;;4.63;;
46505;SDS011;32220;49.808;9.968;2022-08-27T01:15:34;5.10;;;4.27;;
46505;SDS011;32220;49.808;9.968;2022-08-27T01:18:02;5.00;;;4.13;;
46505;SDS011;32220;49.808;9.968;2022-08-27T01:20:32;4.47;;;3.50;;
46505;SDS011;32220;49.808;9.968;2022-08-27T01:23:12;5.10;;;4.17;;
46505;SDS011;32220;49.808;9.968;2022-08-27T01:25:48;4.30;;;3.90;;
46505;SDS011;32220;49.808;9.968;2022-08-27T01:28:17;4.50;;;3.93;;
46505;SDS011;32220;49.808;9.968;2022-08-27T01:30:47;3.93;;;3.33;;
46505;SDS011;32220;49.808;9.968;2022-08-27T01:33:16;5.30;;;3.90;;
46505;SDS011;32220;49.808;9.968;2022-08-27T01:35:46;4.43;;;4.00;;
46505;SDS011;32220;49.808;9.968;2022-08-27T01:38:17;3.90;;;3.37;;
46505;SDS011;32220;49.808;9.968;2022-08-27T01:40:45;5.43;;;4.00;;
46505;SDS011;32220;49.808;9.968;2022-08-27T01:43:15;4.50;;;4.10;;
46505;SDS011;32220;49.808;9.968;2022-08-27T01:45:45;5.13;;;3.77;;
46505;SDS011;32220;49.808;9.968;2022-08-27T01:48:15;4.30;;;3.90;;
46505;SDS011;32220;49.808;9.968;2022-08-27T01:50:44;4.63;;;3.97;;
46505;SDS011;32220;49.808;9.968;2022-08-27T01:53:15;5.37;;;4.17;;
46505;SDS011;32220;49.808;9.968;2022-08-27T01:55:45;4.03;;;3.63;;
46505;SDS011;32220;49.808;9.968;2022-08-27T01:58:16;5.43;;;4.33;;
46505;SDS011;32220;49.808;9.968;2022-08-27T02:00:45;5.13;;;4.63;;
46505;SDS011;32220;49.808;9.968;2022-08-27T02:03:15;5.50;;;4.40;;
46505;SDS011;32220;49.808;9.968;2022-08-27T02:05:44;4.27;;;3.87;;
46505;SDS011;32220;49.808;9.968;2022-08-27T02:08:12;3.57;;;3.23;;
46505;SDS011;32220;49.808;9.968;2022-08-27T02:10:42;4.23;;;3.83;;
46505;SDS011;32220;49.808;9.968;2022-08-27T02:13:10;3.80;;;3.40;;
46505;SDS011;32220;49.808;9.968;2022-08-27T02:15:41;4.17;;;3.77;;
46505;SDS011;32220;49.808;9.968;2022-08-27T02:18:10;4.30;;;3.90;;
46505;SDS011;32220;49.808;9.968;2022-08-27T02:20:39;5.37;;;4.10;;
46505;SDS011;32220;49.808;9.968;2022-08-27T02:23:08;4.63;;;3.97;;
46505;SDS011;32220;49.808;9.968;2022-08-27T02:25:37;3.90;;;3.60;;
46505;SDS011;32220;49.808;9.968;2022-08-27T02:28:07;4.00;;;3.60;;
46505;SDS011;32220;49.808;9.968;2022-08-27T02:30:36;4.80;;;3.50;;
46505;SDS011;32220;49.808;9.968;2022-08-27T02:33:05;4.67;;;4.10;;
46505;SDS011;32220;49.808;9.968;2022-08-27T02:35:33;4.77;;;4.30;;
46505;SDS011;32220;49.808;9.968;2022-08-27T02:38:05;3.73;;;3.43;;
46505;SDS011;32220;49.808;9.968;2022-08-27T02:40:34;4.30;;;3.90;;
46505;SDS011;32220;49.808;9.968;2022-08-27T02:43:02;4.47;;;3.63;;
46505;SDS011;32220;49.808;9.968;2022-08-27T02:45:30;4.60;;;4.20;;
46505;SDS011;32220;49.808;9.968;2022-08-27T02:47:58;5.40;;;4.53;;
46505;SDS011;32220;49.808;9.968;2022-08-27T02:50:27;4.47;;;4.07;;
46505;SDS011;32220;49.808;9.968;2022-08-27T02:52:55;4.97;;;4.33;;
46505;SDS011;32220;49.808;9.968;2022-08-27T02:55:23;4.27;;;3.87;;
46505;SDS011;32220;49.808;9.968;2022-08-27T02:57:51;4.67;;;4.10;;
46505;SDS011;32220;49.808;9.968;2022-08-27T03:00:19;4.77;;;4.13;;
46505;SDS011;32220;49.808;9.968;2022-08-27T03:02:48;4.67;;;4.27;;
46505;SDS011;32220;49.808;9.968;2022-08-27T03:05:16;4.77;;;4.23;;
46505;SDS011;32220;49.808;9.968;2022-08-27T03:07:46;4.30;;;3.90;;
46505;SDS011;32220;49.808;9.968;2022-08-27T03:10:16;4.67;;;4.27;;
46505;SDS011;32220;49.808;9.968;2022-08-27T03:12:45;5.03;;;4.53;;
46505;SDS011;32220;49.808;9.968;2022-08-27T03:15:14;5.57;;;4.23;;
46505;SDS011;32220;49.808;9.968;2022-08-27T03:17:44;5.97;;;5.10;;
46505;SDS011;32220;49.808;9.968;2022-08-27T03:20:29;4.70;;;4.30;;
46505;SDS011;32220;49.808;9.968;2022-08-27T03:22:59;5.30;;;4.80;;
46505;SDS011;32220;49.808;9.968;2022-08-27T03:25:27;5.93;;;4.80;;
46505;SDS011;32220;49.808;9.968;2022-08-27T03:27:54;7.37;;;5.70;;
46505;SDS011;32220;49.808;9.968;2022-08-27T03:30:23;7.27;;;5.73;;
46505;SDS011;32220;49.808;9.968;2022-08-27T03:32:51;7.13;;;6.43;;
46505;SDS011;32220;49.808;9.968;2022-08-27T03:35:20;7.53;;;6.03;;
46505;SDS011;32220;49.808;9.968;2022-08-27T03:37:48;7.23;;;6.33;;
46505;SDS011;32220;49.808;9.968;2022-08-27T03:40:18;6.17;;;5.57;;
46505;SDS011;32220;49.808;9.968;2022-08-27T03:42:46;5.83;;;5.20;;
46505;SDS011;32220;49.808;9.968;2022-08-27T03:45:13;6.33;;;5.73;;
46505;SDS011;32220;49.808;9.968;2022-08-27T03:47:41;6.70;;;5.63;;
46505;SDS011;32220;49.808;9.968;2022-08-27T03:50:09;6.27;;;5.67;;
46505;SDS011;32220;49.808;9.968;2022-08-27T03:52:37;6.23;;;5.63;;
46505;SDS011;32220;49.808;9.968;2022-08-27T03:55:06;5.77;;;5.27;;
46505;SDS011;32220;49.808;9.968;2022-08-27T03:57:36;5.70;;;5.10;;
46505;SDS011;32220;49.808;9.968;2022-08-27T04:00:04;7.43;;;5.67;;
46505;SDS011;32220;49.808;9.968;2022-08-27T04:02:38;6.83;;;6.17;;
46505;SDS011;32220;49.808;9.968;2022-08-27T04:05:08;6.57;;;5.87;;
46505;SDS011;32220;49.808;9.968;2022-08-27T04:07:37;7.20;;;6.53;;
46505;SDS011;32220;49.808;9.968;2022-08-27T04:10:05;7.50;;;6.67;;
46505;SDS011;32220;49.808;9.968;2022-08-27T04:12:36;7.67;;;6.97;;
46505;SDS011;32220;49.808;9.968;2022-08-27T04:15:06;8.03;;;6.90;;
46505;SDS011;32220;49.808;9.968;2022-08-27T04:17:36;7.57;;;6.87;;
46505;SDS011;32220;49.808;9.968;2022-08-27T04:20:04;7.83;;;7.03;;
46505;SDS011;32220;49.808;9.968;2022-08-27T04:22:34;7.57;;;6.87;;
46505;SDS011;32220;49.808;9.968;2022-08-27T04:25:02;8.50;;;7.57;;
46505;SDS011;32220;49.808;9.968;2022-08-27T04:27:30;8.23;;;7.33;;
46505;SDS011;32220;49.808;9.968;2022-08-27T04:29:59;7.00;;;6.30;;
46505;SDS011;32220;49.808;9.968;2022-08-27T04:32:28;8.97;;;7.20;;
46505;SDS011;32220;49.808;9.968;2022-08-27T04:34:58;7.80;;;7.10;;
46505;SDS011;32220;49.808;9.968;2022-08-27T04:37:28;8.73;;;7.00;;
46505;SDS011;32220;49.808;9.968;2022-08-27T04:39:58;9.47;;;7.43;;
46505;SDS011;32220;49.808;9.968;2022-08-27T04:42:26;8.90;;;7.93;;
46505;SDS011;32220;49.808;9.968;2022-08-27T04:44:53;9.27;;;8.33;;
46505;SDS011;32220;49.808;9.968;2022-08-27T04:47:23;8.20;;;7.40;;
46505;SDS011;32220;49.808;9.968;2022-08-27T04:49:51;8.77;;;7.90;;
46505;SDS011;32220;49.808;9.968;2022-08-27T04:52:18;7.97;;;7.27;;
46505;SDS011;32220;49.808;9.968;2022-08-27T04:54:47;8.10;;;7.30;;
46505;SDS011;32220;49.808;9.968;2022-08-27T04:57:15;8.07;;;7.27;;
46505;SDS011;32220;49.808;9.968;2022-08-27T04:59:43;9.90;;;7.10;;
46505;SDS011;32220;49.808;9.968;2022-08-27T05:02:10;9.33;;;7.97;;
46505;SDS011;32220;49.808;9.968;2022-08-27T05:04:40;9.60;;;8.70;;
46505;SDS011;32220;49.808;9.968;2022-08-27T05:07:09;8.33;;;7.53;;
46505;SDS011;32220;49.808;9.968;2022-08-27T05:09:37;9.43;;;8.37;;
46505;SDS011;32220;49.808;9.968;2022-08-27T05:12:04;9.23;;;8.20;;
46505;SDS011;32220;49.808;9.968;2022-08-27T05:14:33;9.57;;;8.57;;
46505;SDS011;32220;49.808;9.968;2022-08-27T05:17:01;9.43;;;8.23;;
46505;SDS011;32220;49.808;9.968;2022-08-27T05:19:29;11.00;;;8.43;;
46505;SDS011;32220;49.808;9.968;2022-08-27T05:21:59;9.77;;;8.10;;
46505;SDS011;32220;49.808;9.968;2022-08-27T05:24:27;13.07;;;11.47;;
46505;SDS011;32220;49.808;9.968;2022-08-27T05:26:54;13.03;;;10.60;;
46505;SDS011;32220;49.808;9.968;2022-08-27T05:29:22;10.27;;;9.27;;
46505;SDS011;32220;49.808;9.968;2022-08-27T05:31:50;13.30;;;10.10;;
46505;SDS011;32220;49.808;9.968;2022-08-27T05:34:18;12.07;;;9.40;;
46505;SDS011;32220;49.808;9.968;2022-08-27T05:36:46;10.00;;;8.57;;
46505;SDS011;32220;49.808;9.968;2022-08-27T05:39:15;10.20;;;9.20;;
46505;SDS011;32220;49.808;9.968;2022-08-27T05:41:43;9.47;;;8.57;;
46505;SDS011;32220;49.808;9.968;2022-08-27T05:44:11;10.20;;;9.10;;
46505;SDS011;32220;49.808;9.968;2022-08-27T05:46:40;9.97;;;8.97;;
46505;SDS011;32220;49.808;9.968;2022-08-27T05:49:08;9.43;;;8.40;;
46505;SDS011;32220;49.808;9.968;2022-08-27T05:51:36;10.27;;;9.27;;
46505;SDS011;32220;49.808;9.968;2022-08-27T05:54:04;11.53;;;9.93;;
46505;SDS011;32220;49.808;9.968;2022-08-27T05:56:35;9.17;;;8.27;;
46505;SDS011;32220;49.808;9.968;2022-08-27T05:59:04;10.47;;;9.47;;
46505;SDS011;32220;49.808;9.968;2022-08-27T06:01:50;10.10;;;9.10;;
46505;SDS011;32220;49.808;9.968;2022-08-27T06:04:20;11.23;;;9.60;;
46505;SDS011;32220;49.808;9.968;2022-08-27T06:06:49;12.90;;;9.93;;
46505;SDS011;32220;49.808;9.968;2022-08-27T06:09:19;9.70;;;8.70;;
46505;SDS011;32220;49.808;9.968;2022-08-27T06:11:50;9.30;;;8.37;;
46505;SDS011;32220;49.808;9.968;2022-08-27T06:14:19;9.37;;;8.37;;
46505;SDS011;32220;49.808;9.968;2022-08-27T06:16:47;10.40;;;9.00;;
46505;SDS011;32220;49.808;9.968;2022-08-27T06:19:15;9.27;;;8.40;;
46505;SDS011;32220;49.808;9.968;2022-08-27T06:21:42;10.03;;;8.27;;
46505;SDS011;32220;49.808;9.968;2022-08-27T06:24:11;10.90;;;8.17;;
46505;SDS011;32220;49.808;9.968;2022-08-27T06:26:39;9.40;;;8.50;;
46505;SDS011;32220;49.808;9.968;2022-08-27T06:29:11;8.10;;;7.30;;
46505;SDS011;32220;49.808;9.968;2022-08-27T06:31:39;8.13;;;7.33;;
46505;SDS011;32220;49.808;9.968;2022-08-27T06:34:07;9.60;;;7.30;;
46505;SDS011;32220;49.808;9.968;2022-08-27T06:36:37;8.87;;;7.30;;
46505;SDS011;32220;49.808;9.968;2022-08-27T06:39:07;8.20;;;7.20;;
46505;SDS011;32220;49.808;9.968;2022-08-27T06:41:38;8.43;;;7.03;;
46505;SDS011;32220;49.808;9.968;2022-08-27T06:44:12;8.63;;;7.90;;
46505;SDS011;32220;49.808;9.968;2022-08-27T06:46:40;11.03;;;8.63;;
46505;SDS011;32220;49.808;9.968;2022-08-27T06:49:08;7.87;;;7.17;;
46505;SDS011;32220;49.808;9.968;2022-08-27T06:51:38;8.77;;;7.87;;
46505;SDS011;32220;49.808;9.968;2022-08-27T06:54:08;9.60;;;8.50;;
46505;SDS011;32220;49.808;9.968;2022-08-27T06:56:37;8.57;;;7.43;;
46505;SDS011;32220;49.808;9.968;2022-08-27T06:59:05;8.57;;;7.70;;
46505;SDS011;32220;49.808;9.968;2022-08-27T07:01:38;7.70;;;7.00;;
46505;SDS011;32220;49.808;9.968;2022-08-27T07:04:07;7.67;;;7.00;;
46505;SDS011;32220;49.808;9.968;2022-08-27T07:06:37;7.03;;;6.33;;
46505;SDS011;32220;49.808;9.968;2022-08-27T07:09:06;7.17;;;6.47;;
46505;SDS011;32220;49.808;9.968;2022-08-27T07:11:33;8.17;;;7.13;;
46505;SDS011;32220;49.808;9.968;2022-08-27T07:14:01;8.30;;;7.50;;
46505;SDS011;32220;49.808;9.968;2022-08-27T07:16:29;9.33;;;8.33;;
46505;SDS011;32220;49.808;9.968;2022-08-27T07:18:59;7.63;;;6.83;;
46505;SDS011;32220;49.808;9.968;2022-08-27T07:21:29;9.40;;;8.07;;
46505;SDS011;32220;49.808;9.968;2022-08-27T07:23:57;7.50;;;6.80;;
46505;SDS011;32220;49.808;9.968;2022-08-27T07:26:29;7.87;;;7.07;;
46505;SDS011;32220;49.808;9.968;2022-08-27T07:28:58;10.23;;;8.27;;
46505;SDS011;32220;49.808;9.968;2022-08-27T07:31:26;8.27;;;7.10;;
46505;SDS011;32220;49.808;9.968;2022-08-27T07:33:54;8.53;;;6.67;;
46505;SDS011;32220;49.808;9.968;2022-08-27T07:36:23;7.60;;;6.80;;
46505;SDS011;32220;49.808;9.968;2022-08-27T07:38:51;8.53;;;6.70;;
46505;SDS011;32220;49.808;9.968;2022-08-27T07:41:20;8.13;;;6.70;;
46505;SDS011;32220;49.808;9.968;2022-08-27T07:43:47;8.47;;;7.00;;
46505;SDS011;32220;49.808;9.968;2022-08-27T07:46:32;10.43;;;7.77;;
46505;SDS011;32220;49.808;9.968;2022-08-27T07:49:00;7.37;;;6.67;;
46505;SDS011;32220;49.808;9.968;2022-08-27T07:51:29;6.30;;;5.70;;
46505;SDS011;32220;49.808;9.968;2022-08-27T07:53:57;7.03;;;6.40;;
46505;SDS011;32220;49.808;9.968;2022-08-27T07:56:25;8.53;;;6.90;;
46505;SDS011;32220;49.808;9.968;2022-08-27T07:58:54;9.20;;;7.00;;
46505;SDS011;32220;49.808;9.968;2022-08-27T08:01:21;9.53;;;7.30;;
46505;SDS011;32220;49.808;9.968;2022-08-27T08:03:50;7.77;;;6.97;;
46505;SDS011;32220;49.808;9.968;2022-08-27T08:06:18;7.90;;;7.03;;
46505;SDS011;32220;49.808;9.968;2022-08-27T08:08:47;6.90;;;6.30;;
46505;SDS011;32220;49.808;9.968;2022-08-27T08:11:15;7.60;;;6.80;;
46505;SDS011;32220;49.808;9.968;2022-08-27T08:13:45;8.77;;;7.17;;
46505;SDS011;32220;49.808;9.968;2022-08-27T08:16:14;6.20;;;5.70;;
46505;SDS011;32220;49.808;9.968;2022-08-27T08:18:42;7.83;;;6.83;;
46505;SDS011;32220;49.808;9.968;2022-08-27T08:21:11;7.73;;;6.53;;
46505;SDS011;32220;49.808;9.968;2022-08-27T08:23:40;6.77;;;6.07;;
46505;SDS011;32220;49.808;9.968;2022-08-27T08:26:10;6.60;;;6.00;;
46505;SDS011;32220;49.808;9.968;2022-08-27T08:28:39;7.63;;;6.83;;
46505;SDS011;32220;49.808;9.968;2022-08-27T08:31:06;6.50;;;5.90;;
46505;SDS011;32220;49.808;9.968;2022-08-27T08:33:34;7.07;;;6.37;;
46505;SDS011;32220;49.808;9.968;2022-08-27T08:36:03;6.13;;;5.53;;
46505;SDS011;32220;49.808;9.968;2022-08-27T08:38:32;7.00;;;6.30;;
46505;SDS011;32220;49.808;9.968;2022-08-27T08:41:00;6.83;;;5.77;;
46505;SDS011;32220;49.808;9.968;2022-08-27T08:43:30;6.17;;;5.67;;
46505;SDS011;32220;49.808;9.968;2022-08-27T08:46:02;7.67;;;5.77;;
46505;SDS011;32220;49.808;9.968;2022-08-27T08:48:37;5.97;;;5.37;;
46505;SDS011;32220;49.808;9.968;2022-08-27T08:51:12;7.40;;;5.60;;
46505;SDS011;32220;49.808;9.968;2022-08-27T08:53:45;5.97;;;5.40;;
46505;SDS011;32220;49.808;9.968;2022-08-27T08:56:22;5.67;;;5.13;;
46505;SDS011;32220;49.808;9.968;2022-08-27T08:59:00;6.57;;;5.53;;
46505;SDS011;32220;49.808;9.968;2022-08-27T09:01:35;5.87;;;5.37;;
46505;SDS011;32220;49.808;9.968;2022-08-27T09:04:03;6.30;;;5.67;;
46505;SDS011;32220;49.808;9.968;2022-08-27T09:06:36;6.50;;;5.20;;
46505;SDS011;32220;49.808;9.968;2022-08-27T09:09:16;5.70;;;5.20;;
46505;SDS011;32220;49.808;9.968;2022-08-27T09:11:49;5.87;;;5.20;;
46505;SDS011;32220;49.808;9.968;2022-08-27T09:14:29;6.53;;;5.37;;
46505;SDS011;32220;49.808;9.968;2022-08-27T09:17:03;6.57;;;5.80;;
46505;SDS011;32220;49.808;9.968;2022-08-27T09:19:32;5.20;;;4.80;;
46505;SDS011;32220;49.808;9.968;2022-08-27T09:22:17;5.87;;;4.80;;
46505;SDS011;32220;49.808;9.968;2022-08-27T09:24:51;6.20;;;5.60;;
46505;SDS011;32220;49.808;9.968;2022-08-27T09:27:31;6.27;;;4.60;;
46505;SDS011;32220;49.808;9.968;2022-08-27T09:30:05;5.53;;;4.80;;
46505;SDS011;32220;49.808;9.968;2022-08-27T09:32:35;5.40;;;4.90;;
46505;SDS011;32220;49.808;9.968;2022-08-27T09:35:05;7.33;;;5.00;;
46505;SDS011;32220;49.808;9.968;2022-08-27T09:37:38;5.07;;;4.63;;
46505;SDS011;32220;49.808;9.968;2022-08-27T09:40:13;5.37;;;4.87;;
46505;SDS011;32220;49.808;9.968;2022-08-27T09:42:46;5.87;;;4.43;;
46505;SDS011;32220;49.808;9.968;2022-08-27T09:45:20;4.97;;;4.47;;
46505;SDS011;32220;49.808;9.968;2022-08-27T09:47:50;4.70;;;4.30;;
46505;SDS011;32220;49.808;9.968;2022-08-27T09:50:20;5.07;;;4.57;;
46505;SDS011;32220;49.808;9.968;2022-08-27T09:52:51;5.00;;;4.60;;
46505;SDS011;32220;49.808;9.968;2022-08-27T09:55:24;6.90;;;4.70;;
46505;SDS011;32220;49.808;9.968;2022-08-27T09:57:57;7.50;;;5.43;;
46505;SDS011;32220;49.808;9.968;2022-08-27T10:00:32;6.43;;;4.53;;
46505;SDS011;32220;49.808;9.968;2022-08-27T10:03:03;4.93;;;4.53;;
46505;SDS011;32220;49.808;9.968;2022-08-27T10:05:36;5.47;;;4.97;;
46505;SDS011;32220;49.808;9.968;2022-08-27T10:08:08;5.40;;;4.90;;
46505;SDS011;32220;49.808;9.968;2022-08-27T10:10:45;5.63;;;5.03;;
46505;SDS011;32220;49.808;9.968;2022-08-27T10:13:20;6.00;;;4.97;;
46505;SDS011;32220;49.808;9.968;2022-08-27T10:19:05;5.80;;;4.60;;
46505;SDS011;32220;49.808;9.968;2022-08-27T10:21:43;4.57;;;3.60;;
46505;SDS011;32220;49.808;9.968;2022-08-27T10:24:19;4.20;;;3.80;;
46505;SDS011;32220;49.808;9.968;2022-08-27T10:27:00;4.90;;;3.60;;
46505;SDS011;32220;49.808;9.968;2022-08-27T10:29:38;5.87;;;3.73;;
46505;SDS011;32220;49.808;9.968;2022-08-27T10:32:14;4.43;;;3.90;;
46505;SDS011;32220;49.808;9.968;2022-08-27T10:34:58;4.93;;;4.20;;
46505;SDS011;32220;49.808;9.968;2022-08-27T10:37:35;5.23;;;4.37;;
46505;SDS011;32220;49.808;9.968;2022-08-27T10:40:12;5.73;;;4.80;;
46505;SDS011;32220;49.808;9.968;2022-08-27T10:42:46;8.03;;;4.97;;
46505;SDS011;32220;49.808;9.968;2022-08-27T10:45:24;5.83;;;5.27;;
46505;SDS011;32220;49.808;9.968;2022-08-27T10:48:09;5.53;;;4.67;;
46505;SDS011;32220;49.808;9.968;2022-08-27T10:50:51;5.00;;;4.60;;
46505;SDS011;32220;49.808;9.968;2022-08-27T10:53:25;7.17;;;5.07;;
46505;SDS011;32220;49.808;9.968;2022-08-27T10:55:59;6.23;;;4.87;;
46505;SDS011;32220;49.808;9.968;2022-08-27T10:58:38;5.70;;;4.83;;
46505;SDS011;32220;49.808;9.968;2022-08-27T11:01:15;5.50;;;4.83;;
46505;SDS011;32220;49.808;9.968;2022-08-27T11:03:49;6.40;;;5.80;;
46505;SDS011;32220;49.808;9.968;2022-08-27T11:06:21;5.33;;;4.83;;
46505;SDS011;32220;49.808;9.968;2022-08-27T11:08:54;5.33;;;4.83;;
46505;SDS011;32220;49.808;9.968;2022-08-27T11:11:30;5.90;;;5.23;;
46505;SDS011;32220;49.808;9.968;2022-08-27T11:14:04;6.67;;;5.27;;
46505;SDS011;32220;49.808;9.968;2022-08-27T11:16:36;5.97;;;5.37;;
46505;SDS011;32220;49.808;9.968;2022-08-27T11:19:11;7.67;;;5.30;;
46505;SDS011;32220;49.808;9.968;2022-08-27T11:21:45;6.33;;;5.73;;
46505;SDS011;32220;49.808;9.968;2022-08-27T11:24:20;6.07;;;5.10;;
46505;SDS011;32220;49.808;9.968;2022-08-27T11:26:55;6.73;;;5.63;;
46505;SDS011;32220;49.808;9.968;2022-08-27T11:29:29;5.50;;;5.00;;
46505;SDS011;32220;49.808;9.968;2022-08-27T11:32:02;5.70;;;5.07;;
46505;SDS011;32220;49.808;9.968;2022-08-27T11:34:40;5.57;;;4.63;;
46505;SDS011;32220;49.808;9.968;2022-08-27T11:37:15;4.83;;;4.40;;
46505;SDS011;32220;49.808;9.968;2022-08-27T11:39:59;5.93;;;4.90;;
46505;SDS011;32220;49.808;9.968;2022-08-27T11:42:39;5.17;;;4.63;;
46505;SDS011;32220;49.808;9.968;2022-08-27T11:45:14;6.37;;;5.33;;
46505;SDS011;32220;49.808;9.968;2022-08-27T11:47:51;6.63;;;4.77;;
46505;SDS011;32220;49.808;9.968;2022-08-27T11:50:22;6.60;;;5.07;;
46505;SDS011;32220;49.808;9.968;2022-08-27T11:52:56;5.97;;;5.37;;
46505;SDS011;32220;49.808;9.968;2022-08-27T11:55:27;4.97;;;4.50;;
46505;SDS011;32220;49.808;9.968;2022-08-27T11:58:05;9.13;;;5.63;;
46505;SDS011;32220;49.808;9.968;2022-08-27T12:00:36;5.73;;;5.13;;
46505;SDS011;32220;49.808;9.968;2022-08-27T12:03:05;5.20;;;4.47;;
46505;SDS011;32220;49.808;9.968;2022-08-27T12:05:38;5.27;;;4.77;;
46505;SDS011;32220;49.808;9.968;2022-08-27T12:08:13;5.53;;;4.10;;
46505;SDS011;32220;49.808;9.968;2022-08-27T12:10:56;4.50;;;4.10;;
46505;SDS011;32220;49.808;9.968;2022-08-27T12:13:36;6.43;;;4.40;;
46505;SDS011;32220;49.808;9.968;2022-08-27T12:16:14;5.60;;;4.57;;
46505;SDS011;32220;49.808;9.968;2022-08-27T12:18:54;4.30;;;3.90;;
46505;SDS011;32220;49.808;9.968;2022-08-27T12:21:47;4.83;;;4.33;;
46505;SDS011;32220;49.808;9.968;2022-08-27T12:24:31;4.33;;;3.93;;
46505;SDS011;32220;49.808;9.968;2022-08-27T12:27:15;5.37;;;4.87;;
46505;SDS011;32220;49.808;9.968;2022-08-27T12:29:54;4.57;;;4.27;;
46505;SDS011;32220;49.808;9.968;2022-08-27T12:32:25;4.53;;;4.17;;
46505;SDS011;32220;49.808;9.968;2022-08-27T12:35:04;6.70;;;4.17;;
46505;SDS011;32220;49.808;9.968;2022-08-27T12:37:39;5.20;;;4.70;;
46505;SDS011;32220;49.808;9.968;2022-08-27T12:40:12;4.53;;;4.07;;
46505;SDS011;32220;49.808;9.968;2022-08-27T12:42:45;5.37;;;4.27;;
46505;SDS011;32220;49.808;9.968;2022-08-27T12:45:17;4.80;;;4.40;;
46505;SDS011;32220;49.808;9.968;2022-08-27T12:47:49;5.40;;;4.40;;
46505;SDS011;32220;49.808;9.968;2022-08-27T12:50:20;4.17;;;3.77;;
46505;SDS011;32220;49.808;9.968;2022-08-27T12:56:03;3.37;;;3.07;;
46505;SDS011;32220;49.808;9.968;2022-08-27T12:58:48;4.73;;;3.20;;
46505;SDS011;32220;49.808;9.968;2022-08-27T13:01:28;5.53;;;3.07;;
46505;SDS011;32220;49.808;9.968;2022-08-27T13:04:18;3.10;;;2.80;;
46505;SDS011;32220;49.808;9.968;2022-08-27T13:06:49;4.50;;;3.07;;
46505;SDS011;32220;49.808;9.968;2022-08-27T13:09:26;2.83;;;2.57;;
46505;SDS011;32220;49.808;9.968;2022-08-27T13:11:55;2.67;;;2.30;;
46505;SDS011;32220;49.808;9.968;2022-08-27T13:14:25;2.13;;;2.00;;
46505;SDS011;32220;49.808;9.968;2022-08-27T13:16:55;3.63;;;2.27;;
46505;SDS011;32220;49.808;9.968;2022-08-27T13:19:27;2.50;;;2.30;;
46505;SDS011;32220;49.808;9.968;2022-08-27T13:21:57;2.80;;;2.50;;
46505;SDS011;32220;49.808;9.968;2022-08-27T13:24:29;3.20;;;2.50;;
46505;SDS011;32220;49.808;9.968;2022-08-27T13:26:58;4.60;;;2.37;;
46505;SDS011;32220;49.808;9.968;2022-08-27T13:29:27;2.53;;;2.33;;
46505;SDS011;32220;49.808;9.968;2022-08-27T13:31:56;2.50;;;2.30;;
46505;SDS011;32220;49.808;9.968;2022-08-27T13:34:26;3.20;;;2.90;;
46505;SDS011;32220;49.808;9.968;2022-08-27T13:36:59;3.27;;;2.97;;
46505;SDS011;32220;49.808;9.968;2022-08-27T13:39:31;3.13;;;2.87;;
46505;SDS011;32220;49.808;9.968;2022-08-27T13:42:00;4.60;;;3.10;;
46505;SDS011;32220;49.808;9.968;2022-08-27T13:44:31;3.20;;;2.90;;
46505;SDS011;32220;49.808;9.968;2022-08-27T13:47:02;2.83;;;2.63;;
46505;SDS011;32220;49.808;9.968;2022-08-27T13:49:33;3.10;;;2.87;;
46505;SDS011;32220;49.808;9.968;2022-08-27T13:52:04;3.27;;;2.97;;
46505;SDS011;32220;49.808;9.968;2022-08-27T13:54:41;5.80;;;3.30;;
46505;SDS011;32220;49.808;9.968;2022-08-27T13:57:09;3.47;;;3.17;;
46505;SDS011;32220;49.808;9.968;2022-08-27T13:59:39;3.43;;;3.13;;
46505;SDS011;32220;49.808;9.968;2022-08-27T14:02:17;3.70;;;3.13;;
46505;SDS011;32220;49.808;9.968;2022-08-27T14:04:48;3.57;;;3.20;;
46505;SDS011;32220;49.808;9.968;2022-08-27T14:07:20;4.27;;;3.60;;
46505;SDS011;32220;49.808;9.968;2022-08-27T14:09:51;5.83;;;4.03;;
46505;SDS011;32220;49.808;9.968;2022-08-27T14:12:26;3.77;;;3.47;;
46505;SDS011;32220;49.808;9.968;2022-08-27T14:14:57;3.73;;;3.43;;
46505;SDS011;32220;49.808;9.968;2022-08-27T14:17:38;4.00;;;3.67;;
46505;SDS011;32220;49.808;9.968;2022-08-27T14:20:06;3.23;;;2.93;;
46505;SDS011;32220;49.808;9.968;2022-08-27T14:22:35;3.30;;;3.00;;
46505;SDS011;32220;49.808;9.968;2022-08-27T14:25:05;3.57;;;3.00;;
46505;SDS011;32220;49.808;9.968;2022-08-27T14:27:34;3.20;;;2.90;;
46505;SDS011;32220;49.808;9.968;2022-08-27T14:30:03;4.33;;;3.30;;
46505;SDS011;32220;49.808;9.968;2022-08-27T14:32:32;4.03;;;3.40;;
46505;SDS011;32220;49.808;9.968;2022-08-27T14:34:59;4.97;;;3.37;;
46505;SDS011;32220;49.808;9.968;2022-08-27T14:37:27;2.87;;;2.67;;
46505;SDS011;32220;49.808;9.968;2022-08-27T14:39:55;4.37;;;2.90;;
46505;SDS011;32220;49.808;9.968;2022-08-27T14:42:25;3.40;;;3.10;;
46505;SDS011;32220;49.808;9.968;2022-08-27T14:44:52;3.20;;;2.70;;
46505;SDS011;32220;49.808;9.968;2022-08-27T14:47:20;3.57;;;3.27;;
46505;SDS011;32220;49.808;9.968;2022-08-27T14:49:48;3.73;;;3.13;;
46505;SDS011;32220;49.808;9.968;2022-08-27T14:52:16;3.50;;;3.07;;
46505;SDS011;32220;49.808;9.968;2022-08-27T14:54:44;3.27;;;2.97;;
46505;SDS011;32220;49.808;9.968;2022-08-27T14:57:12;3.80;;;3.40;;
46505;SDS011;32220;49.808;9.968;2022-08-27T14:59:41;3.37;;;3.07;;
46505;SDS011;32220;49.808;9.968;2022-08-27T15:02:09;3.20;;;2.93;;
46505;SDS011;32220;49.808;9.968;2022-08-27T15:04:39;3.20;;;2.90;;
46505;SDS011;32220;49.808;9.968;2022-08-27T15:07:07;3.07;;;2.83;;
46505;SDS011;32220;49.808;9.968;2022-08-27T15:09:35;2.83;;;2.63;;
46505;SDS011;32220;49.808;9.968;2022-08-27T15:12:03;3.00;;;2.80;;
46505;SDS011;32220;49.808;9.968;2022-08-27T15:14:32;4.00;;;3.60;;
46505;SDS011;32220;49.808;9.968;2022-08-27T15:17:03;3.37;;;3.07;;